createdAt,value
2022-08-04T00:00:24.491Z,3.40
2022-08-04T00:01:31.016Z,3.83
2022-08-04T00:02:41.914Z,3.03
2022-08-04T00:03:55.638Z,4.00
2022-08-04T00:05:01.426Z,3.33
2022-08-04T00:06:06.993Z,3.40
2022-08-04T00:07:15.614Z,3.47
2022-08-04T00:08:22.489Z,3.63
2022-08-04T00:09:37.090Z,3.53
2022-08-04T00:10:40.803Z,3.50
2022-08-04T00:11:46.973Z,3.53
2022-08-04T00:12:59.270Z,3.63
2022-08-04T00:14:10.125Z,3.33
2022-08-04T00:15:16.770Z,3.70
2022-08-04T00:16:19.628Z,3.77
2022-08-04T00:17:24.851Z,3.50
2022-08-04T00:18:30.961Z,3.40
2022-08-04T00:19:41.114Z,2.87
2022-08-04T00:20:44.098Z,3.40
2022-08-04T00:21:49.425Z,3.30
2022-08-04T00:22:53.570Z,3.40
2022-08-04T00:24:12.201Z,3.57
2022-08-04T00:25:23.108Z,2.90
2022-08-04T00:26:26.800Z,3.00
2022-08-04T00:27:29.861Z,3.37
2022-08-04T00:28:33.434Z,3.30
2022-08-04T00:29:43.133Z,2.60
2022-08-04T00:30:46.683Z,2.90
2022-08-04T00:31:56.179Z,3.33
2022-08-04T00:33:00.746Z,2.80
2022-08-04T00:34:04.744Z,2.90
2022-08-04T00:35:17.145Z,2.90
2022-08-04T00:36:20.946Z,3.13
2022-08-04T00:37:32.138Z,2.53
2022-08-04T00:38:37.317Z,2.97
2022-08-04T00:39:42.045Z,3.13
2022-08-04T00:40:53.955Z,3.00
2022-08-04T00:42:03.525Z,2.60
2022-08-04T00:43:18.119Z,2.70
2022-08-04T00:44:28.346Z,2.57
2022-08-04T00:46:10.718Z,3.13
2022-08-04T00:47:07.582Z,2.93
2022-08-04T00:48:24.115Z,2.57
2022-08-04T00:49:35.937Z,2.80
2022-08-04T00:50:45.007Z,3.27
2022-08-04T00:52:32.221Z,2.93
2022-08-04T00:53:23.135Z,3.03
2022-08-04T00:54:32.094Z,3.67
2022-08-04T00:55:59.793Z,3.00
2022-08-04T00:57:04.869Z,3.60
2022-08-04T00:58:26.111Z,3.70
2022-08-04T00:59:44.146Z,3.50
2022-08-04T01:00:53.170Z,3.33
2022-08-04T01:02:01.867Z,3.30
2022-08-04T01:03:10.773Z,3.10
2022-08-04T01:04:25.112Z,2.93
2022-08-04T01:05:37.514Z,2.90
2022-08-04T01:06:50.927Z,2.93
2022-08-04T01:08:19.189Z,2.37
2022-08-04T01:09:29.051Z,2.70
2022-08-04T01:10:38.928Z,2.27
2022-08-04T01:11:58.019Z,2.20
2022-08-04T01:13:28.132Z,2.17
2022-08-04T01:14:37.922Z,2.43
2022-08-04T01:15:59.309Z,2.57
2022-08-04T01:17:19.751Z,2.30
2022-08-04T01:18:30.139Z,2.33
2022-08-04T01:19:52.204Z,3.00
2022-08-04T01:21:08.020Z,2.40
2022-08-04T01:22:27.908Z,3.00
2022-08-04T01:23:53.138Z,2.17
2022-08-04T01:25:04.666Z,2.40
2022-08-04T01:26:43.272Z,2.87
2022-08-04T01:27:57.743Z,2.60
2022-08-04T01:29:18.155Z,2.47
2022-08-04T01:30:22.860Z,2.27
2022-08-04T01:31:31.833Z,2.40
2022-08-04T01:32:38.405Z,2.60
2022-08-04T01:33:58.408Z,2.60
2022-08-04T01:35:22.300Z,1.97
2022-08-04T01:36:41.920Z,2.00
2022-08-04T01:37:57.881Z,2.13
2022-08-04T01:39:28.259Z,2.00
2022-08-04T01:40:35.645Z,2.00
2022-08-04T01:41:38.310Z,2.10
2022-08-04T01:42:43.103Z,1.97
2022-08-04T01:43:46.353Z,2.00
2022-08-04T01:44:58.141Z,2.17
2022-08-04T01:46:10.145Z,2.27
2022-08-04T01:47:13.923Z,1.73
2022-08-04T01:48:16.808Z,2.00
2022-08-04T01:49:22.826Z,2.00
2022-08-04T01:50:28.349Z,1.63
2022-08-04T01:51:42.162Z,1.63
2022-08-04T01:52:50.959Z,1.87
2022-08-04T01:53:53.918Z,2.03
2022-08-04T01:55:04.180Z,2.30
2022-08-04T01:56:07.434Z,2.40
2022-08-04T01:57:38.733Z,2.03
2022-08-04T01:58:36.439Z,2.53
2022-08-04T01:59:39.396Z,2.13
2022-08-04T02:00:56.388Z,1.70
2022-08-04T02:01:59.375Z,2.10
2022-08-04T02:03:03.280Z,2.43
2022-08-04T02:04:20.159Z,2.07
2022-08-04T02:06:03.097Z,2.40
2022-08-04T02:07:00.166Z,1.80
2022-08-04T02:08:18.145Z,2.07
2022-08-04T02:09:24.662Z,1.93
2022-08-04T02:10:30.292Z,2.20
2022-08-04T02:11:39.164Z,2.10
2022-08-04T02:12:58.169Z,2.17
2022-08-04T02:14:03.273Z,1.87
2022-08-04T02:15:14.550Z,2.23
2022-08-04T02:16:24.872Z,1.80
2022-08-04T02:17:38.184Z,2.40
2022-08-04T02:18:44.109Z,2.20
2022-08-04T02:19:54.919Z,2.30
2022-08-04T02:20:59.978Z,1.97
2022-08-04T02:22:07.422Z,2.03
2022-08-04T02:23:19.151Z,2.20
2022-08-04T02:24:22.769Z,2.07
2022-08-04T02:25:26.631Z,2.67
2022-08-04T02:26:30.142Z,2.20
2022-08-04T02:28:00.274Z,1.90
2022-08-04T02:29:06.897Z,2.17
2022-08-04T02:30:18.490Z,2.40
2022-08-04T02:31:29.265Z,2.20
2022-08-04T02:32:38.827Z,2.23
2022-08-04T02:33:50.177Z,2.60
2022-08-04T02:35:02.184Z,2.23
2022-08-04T02:36:06.565Z,2.20
2022-08-04T02:37:11.836Z,2.33
2022-08-04T02:38:25.661Z,2.30
2022-08-04T02:39:47.702Z,2.20
2022-08-04T02:40:52.436Z,2.03
2022-08-04T02:41:57.540Z,2.50
2022-08-04T02:43:05.170Z,2.53
2022-08-04T02:44:10.687Z,2.80
2022-08-04T02:45:20.194Z,2.20
2022-08-04T02:46:26.070Z,2.40
2022-08-04T02:48:28.769Z,2.50
2022-08-04T02:48:54.462Z,2.20
2022-08-04T02:50:06.228Z,2.77
2022-08-04T02:51:09.496Z,2.03
2022-08-04T02:52:13.659Z,2.50
2022-08-04T02:53:16.325Z,2.43
2022-08-04T02:54:33.629Z,2.40
2022-08-04T02:55:36.814Z,2.50
2022-08-04T02:56:47.295Z,2.17
2022-08-04T02:57:53.141Z,2.73
2022-08-04T02:59:00.114Z,2.60
2022-08-04T03:00:14.175Z,2.50
2022-08-04T03:01:17.669Z,2.30
2022-08-04T03:02:25.027Z,2.00
2022-08-04T03:03:33.117Z,2.13
2022-08-04T03:04:49.251Z,2.10
2022-08-04T03:06:01.391Z,2.93
2022-08-04T03:07:23.182Z,1.90
2022-08-04T03:08:37.536Z,2.20
2022-08-04T03:10:10.210Z,2.30
2022-08-04T03:11:22.540Z,2.33
2022-08-04T03:12:43.178Z,2.50
2022-08-04T03:14:09.437Z,2.10
2022-08-04T03:15:30.395Z,2.57
2022-08-04T03:16:59.246Z,2.50
2022-08-04T03:18:23.559Z,2.27
2022-08-04T03:19:44.690Z,2.63
2022-08-04T03:21:02.492Z,2.70
2022-08-04T03:22:32.179Z,2.50
2022-08-04T03:23:52.105Z,2.33
2022-08-04T03:25:19.204Z,2.23
2022-08-04T03:26:40.503Z,3.13
2022-08-04T03:28:08.182Z,3.30
2022-08-04T03:29:36.207Z,2.90
2022-08-04T03:30:50.021Z,2.80
2022-08-04T03:32:10.139Z,2.60
2022-08-04T03:33:47.217Z,2.80
2022-08-04T03:35:10.193Z,2.40
2022-08-04T03:36:37.669Z,3.23
2022-08-04T03:37:53.693Z,2.50
2022-08-04T03:39:18.225Z,2.73
2022-08-04T03:40:49.170Z,2.57
2022-08-04T03:42:03.931Z,2.73
2022-08-04T03:43:57.887Z,3.00
2022-08-04T03:45:23.679Z,2.70
2022-08-04T03:46:42.757Z,2.90
2022-08-04T03:47:56.903Z,2.80
2022-08-04T03:49:14.364Z,3.10
2022-08-04T03:50:44.212Z,3.10
2022-08-04T03:52:21.256Z,3.53
2022-08-04T03:53:35.199Z,3.17
2022-08-04T03:54:56.093Z,3.23
2022-08-04T03:56:10.018Z,3.70
2022-08-04T03:57:30.211Z,3.20
2022-08-04T03:58:51.357Z,2.97
2022-08-04T04:00:03.999Z,3.70
2022-08-04T04:01:19.196Z,3.00
2022-08-04T04:02:36.547Z,3.37
2022-08-04T04:04:01.196Z,3.83
2022-08-04T04:05:22.166Z,3.97
2022-08-04T04:06:35.744Z,4.23
2022-08-04T04:08:01.957Z,3.87
2022-08-04T04:09:53.870Z,3.33
2022-08-04T04:11:14.129Z,3.00
2022-08-04T04:12:28.087Z,3.40
2022-08-04T04:13:51.758Z,2.97
2022-08-04T04:15:17.260Z,3.13
2022-08-04T04:16:29.955Z,3.20
2022-08-04T04:17:47.875Z,2.90
2022-08-04T04:18:58.957Z,3.10
2022-08-04T04:20:15.699Z,3.47
2022-08-04T04:21:35.217Z,2.70
2022-08-04T04:22:52.591Z,2.90
2022-08-04T04:24:01.139Z,2.83
2022-08-04T04:25:21.225Z,3.27
2022-08-04T04:26:33.547Z,2.50
2022-08-04T04:27:49.205Z,2.57
2022-08-04T04:29:03.078Z,3.07
2022-08-04T04:30:08.156Z,2.83
2022-08-04T04:31:23.158Z,2.50
2022-08-04T04:32:40.255Z,2.70
2022-08-04T04:33:49.545Z,2.40
2022-08-04T04:35:03.579Z,2.80
2022-08-04T04:36:12.129Z,3.20
2022-08-04T04:37:39.623Z,3.40
2022-08-04T04:39:14.277Z,2.87
2022-08-04T04:40:24.081Z,2.90
2022-08-04T04:41:33.886Z,2.90
2022-08-04T04:42:42.665Z,2.97
2022-08-04T04:44:10.506Z,2.80
2022-08-04T04:45:31.578Z,3.07
2022-08-04T04:46:39.559Z,3.33
2022-08-04T04:48:08.114Z,3.10
2022-08-04T04:49:25.490Z,2.97
2022-08-04T04:50:37.099Z,3.20
2022-08-04T04:51:43.376Z,2.43
2022-08-04T04:52:49.805Z,2.60
2022-08-04T04:54:00.488Z,2.70
2022-08-04T04:55:13.231Z,3.20
2022-08-04T04:56:18.738Z,2.67
2022-08-04T04:57:54.643Z,2.37
2022-08-04T04:58:47.953Z,2.40
2022-08-04T04:59:59.219Z,3.53
2022-08-04T05:01:09.754Z,3.10
2022-08-04T05:02:29.828Z,2.90
2022-08-04T05:03:41.965Z,2.90
2022-08-04T05:05:05.231Z,3.07
2022-08-04T05:06:30.251Z,3.07
2022-08-04T05:07:53.759Z,2.57
2022-08-04T05:09:14.604Z,2.90
2022-08-04T05:10:23.769Z,2.67
2022-08-04T05:11:50.254Z,2.70
2022-08-04T05:14:32.007Z,2.80
2022-08-04T05:14:49.216Z,3.57
2022-08-04T05:15:55.411Z,2.80
2022-08-04T05:17:08.241Z,2.93
2022-08-04T05:18:21.212Z,3.17
2022-08-04T05:19:26.731Z,2.90
2022-08-04T05:20:31.622Z,2.77
2022-08-04T05:21:38.845Z,2.90
2022-08-04T05:22:51.231Z,2.73
2022-08-04T05:24:02.114Z,3.00
2022-08-04T05:25:08.364Z,3.13
2022-08-04T05:26:12.404Z,2.60
2022-08-04T05:27:25.235Z,3.00
2022-08-04T05:28:36.245Z,2.93
2022-08-04T05:29:42.433Z,3.00
2022-08-04T05:30:48.783Z,2.77
2022-08-04T05:31:54.076Z,2.87
2022-08-04T05:33:05.231Z,2.60
2022-08-04T05:34:17.257Z,2.80
2022-08-04T05:35:47.929Z,2.80
2022-08-04T05:36:49.441Z,3.03
2022-08-04T05:38:01.265Z,2.73
2022-08-04T05:39:12.275Z,2.90
2022-08-04T05:40:15.724Z,3.10
2022-08-04T05:41:19.257Z,2.80
2022-08-04T05:42:23.656Z,2.90
2022-08-04T05:43:27.494Z,2.40
2022-08-04T05:44:36.237Z,2.90
2022-08-04T05:45:39.877Z,2.90
2022-08-04T05:46:43.548Z,2.93
2022-08-04T05:47:47.429Z,3.13
2022-08-04T05:48:50.266Z,2.90
2022-08-04T05:50:02.236Z,3.00
2022-08-04T05:51:06.342Z,2.80
2022-08-04T05:52:11.967Z,2.70
2022-08-04T05:53:15.187Z,2.60
2022-08-04T05:54:21.078Z,2.97
2022-08-04T05:55:48.821Z,3.07
2022-08-04T05:56:56.529Z,2.43
2022-08-04T05:58:03.674Z,2.40
2022-08-04T05:59:06.506Z,2.50
2022-08-04T06:00:38.745Z,2.93
2022-08-04T06:01:56.253Z,2.17
2022-08-04T06:03:00.862Z,3.00
2022-08-04T06:04:11.536Z,3.03
2022-08-04T06:05:22.305Z,2.23
2022-08-04T06:06:24.913Z,2.60
2022-08-04T06:07:31.427Z,2.40
2022-08-04T06:08:35.008Z,2.40
2022-08-04T06:09:37.922Z,2.73
2022-08-04T06:10:49.274Z,2.87
2022-08-04T06:12:00.577Z,2.70
2022-08-04T06:13:47.463Z,2.40
2022-08-04T06:14:59.638Z,2.40
2022-08-04T06:16:02.915Z,3.00
2022-08-04T06:18:33.465Z,2.07
2022-08-04T06:19:57.494Z,2.30
2022-08-04T06:20:18.886Z,2.60
2022-08-04T06:21:28.820Z,2.20
2022-08-04T06:22:31.811Z,2.77
2022-08-04T06:23:36.980Z,2.37
2022-08-04T06:24:59.126Z,2.50
2022-08-04T06:26:10.333Z,2.50
2022-08-04T06:27:13.900Z,2.37
2022-08-04T06:28:19.580Z,2.72
2022-08-04T06:29:27.038Z,2.60
2022-08-04T06:30:32.567Z,2.77
2022-08-04T06:32:27.025Z,2.70
2022-08-04T06:33:54.162Z,2.50
2022-08-04T06:34:59.718Z,3.03
2022-08-04T06:36:03.954Z,2.65
2022-08-04T06:37:07.363Z,2.55
2022-08-04T06:38:21.203Z,2.70
2022-08-04T06:39:26.187Z,3.10
2022-08-04T06:40:33.254Z,2.70
2022-08-04T06:41:36.921Z,2.60
2022-08-04T06:43:07.268Z,2.60
2022-08-04T06:44:12.239Z,2.45
2022-08-04T06:45:16.409Z,2.55
2022-08-04T06:46:26.272Z,2.50
2022-08-04T06:47:30.444Z,2.60
2022-08-04T06:48:34.423Z,2.22
2022-08-04T06:49:55.170Z,2.35
2022-08-04T06:51:32.023Z,2.10
2022-08-04T06:52:33.228Z,2.40
2022-08-04T06:53:35.940Z,2.30
2022-08-04T06:54:39.388Z,2.35
2022-08-04T06:55:42.127Z,2.25
2022-08-04T06:56:53.288Z,2.60
2022-08-04T06:58:01.029Z,2.38
2022-08-04T06:59:13.294Z,2.33
2022-08-04T07:00:18.777Z,2.40
2022-08-04T07:01:22.153Z,2.45
2022-08-04T07:02:27.523Z,2.38
2022-08-04T07:03:30.674Z,1.95
2022-08-04T07:04:40.303Z,2.55
2022-08-04T07:05:49.293Z,2.13
2022-08-04T07:06:52.842Z,2.00
2022-08-04T07:07:57.281Z,2.45
2022-08-04T07:09:03.105Z,2.53
2022-08-04T07:10:07.138Z,2.20
2022-08-04T07:11:18.289Z,2.40
2022-08-04T07:12:21.511Z,2.50
2022-08-04T07:13:31.488Z,1.92
2022-08-04T07:14:41.374Z,2.28
2022-08-04T07:15:47.637Z,2.35
2022-08-04T07:16:58.336Z,2.60
2022-08-04T07:18:03.667Z,2.00
2022-08-04T07:19:10.642Z,2.75
2022-08-04T07:20:15.692Z,2.05
2022-08-04T07:21:37.131Z,1.92
2022-08-04T07:22:49.305Z,2.42
2022-08-04T07:23:53.118Z,2.30
2022-08-04T07:24:56.472Z,2.10
2022-08-04T07:26:12.846Z,2.47
2022-08-04T07:27:18.111Z,2.13
2022-08-04T07:28:49.278Z,2.13
2022-08-04T07:29:52.490Z,2.20
2022-08-04T07:30:58.250Z,2.15
2022-08-04T07:32:01.927Z,2.10
2022-08-04T07:33:06.972Z,2.17
2022-08-04T07:34:20.636Z,1.90
2022-08-04T07:36:05.296Z,2.03
2022-08-04T07:36:50.097Z,2.50
2022-08-04T07:37:54.580Z,1.80
2022-08-04T07:38:58.110Z,2.47
2022-08-04T07:40:08.525Z,2.40
2022-08-04T07:42:42.286Z,2.08
2022-08-04T07:43:45.781Z,2.22
2022-08-04T07:44:55.349Z,2.13
2022-08-04T07:46:00.319Z,2.00
2022-08-04T07:47:04.201Z,2.33
2022-08-04T07:48:08.041Z,2.08
2022-08-04T07:49:10.732Z,2.15
2022-08-04T07:50:21.304Z,1.77
2022-08-04T07:51:23.982Z,2.15
2022-08-04T07:52:27.826Z,1.92
2022-08-04T07:53:55.136Z,2.47
2022-08-04T07:54:54.722Z,2.13
2022-08-04T07:56:04.343Z,2.20
2022-08-04T07:57:08.087Z,1.85
2022-08-04T07:58:22.801Z,2.25
2022-08-04T07:59:26.848Z,2.35
2022-08-04T08:00:40.336Z,2.40
2022-08-04T08:01:45.482Z,2.15
2022-08-04T08:02:49.917Z,2.13
2022-08-04T08:03:54.787Z,2.00
2022-08-04T08:04:57.371Z,2.25
2022-08-04T08:06:30.599Z,1.90
2022-08-04T08:07:30.679Z,2.10
2022-08-04T08:08:48.493Z,1.55
2022-08-04T08:10:05.287Z,2.10
2022-08-04T08:11:16.276Z,1.98
2022-08-04T08:12:35.187Z,1.63
2022-08-04T08:13:49.699Z,1.80
2022-08-04T08:14:59.623Z,2.03
2022-08-04T08:16:09.319Z,2.15
2022-08-04T08:17:14.497Z,1.98
2022-08-04T08:18:18.251Z,2.28
2022-08-04T08:19:22.419Z,1.95
2022-08-04T08:20:31.534Z,2.08
2022-08-04T08:21:35.389Z,2.15
2022-08-04T08:22:58.921Z,1.88
2022-08-04T08:24:02.400Z,1.83
2022-08-04T08:25:06.962Z,2.60
2022-08-04T08:26:17.348Z,2.08
2022-08-04T08:27:20.256Z,2.08
2022-08-04T08:28:23.919Z,2.13
2022-08-04T08:29:27.251Z,2.00
2022-08-04T08:30:31.904Z,2.28
2022-08-04T08:31:57.476Z,2.17
2022-08-04T08:33:06.204Z,1.85
2022-08-04T08:34:10.258Z,1.67
2022-08-04T08:35:12.919Z,2.10
2022-08-04T08:36:28.310Z,1.85
2022-08-04T08:37:33.749Z,2.08
2022-08-04T08:38:51.410Z,2.03
2022-08-04T08:39:58.189Z,1.70
2022-08-04T08:41:17.270Z,2.17
2022-08-04T08:42:38.606Z,2.10
2022-08-04T08:44:04.482Z,1.63
2022-08-04T08:45:32.278Z,2.45
2022-08-04T08:46:50.402Z,1.92
2022-08-04T08:48:06.955Z,1.92
2022-08-04T08:50:00.157Z,2.20
2022-08-04T08:51:18.342Z,2.00
2022-08-04T08:52:55.306Z,1.40
2022-08-04T08:54:10.680Z,1.92
2022-08-04T08:55:25.939Z,1.85
2022-08-04T08:56:40.672Z,1.88
2022-08-04T08:57:59.961Z,1.70
2022-08-04T08:59:16.873Z,2.08
2022-08-04T09:00:22.228Z,2.10
2022-08-04T09:01:52.401Z,1.48
2022-08-04T09:03:14.688Z,1.77
2022-08-04T09:04:32.870Z,1.90
2022-08-04T09:05:48.739Z,1.85
2022-08-04T09:07:13.352Z,1.75
2022-08-04T09:08:28.124Z,1.98
2022-08-04T09:09:48.102Z,2.00
2022-08-04T09:10:52.490Z,1.63
2022-08-04T09:11:59.174Z,1.65
2022-08-04T09:13:12.359Z,2.00
2022-08-04T09:14:26.520Z,1.80
2022-08-04T09:15:39.098Z,1.63
2022-08-04T09:16:51.365Z,1.80
2022-08-04T09:17:56.578Z,1.75
2022-08-04T09:19:03.329Z,1.90
2022-08-04T09:20:12.061Z,1.95
2022-08-04T09:21:25.339Z,2.00
2022-08-04T09:22:31.211Z,2.22
2022-08-04T09:23:37.822Z,1.77
2022-08-04T09:24:49.371Z,1.80
2022-08-04T09:25:56.119Z,1.83
2022-08-04T09:27:08.397Z,1.83
2022-08-04T09:28:31.689Z,1.70
2022-08-04T09:29:43.409Z,1.80
2022-08-04T09:30:50.708Z,2.22
2022-08-04T09:32:06.808Z,1.88
2022-08-04T09:33:45.478Z,1.88
2022-08-04T09:35:04.605Z,1.60
2022-08-04T09:36:25.807Z,1.80
2022-08-04T09:37:46.437Z,1.80
2022-08-04T09:38:52.563Z,2.30
2022-08-04T09:40:09.381Z,1.83
2022-08-04T09:41:49.353Z,1.92
2022-08-04T09:43:00.369Z,1.55
2022-08-04T09:44:50.680Z,1.90
2022-08-04T09:45:42.584Z,1.70
2022-08-04T09:46:51.608Z,1.80
2022-08-04T09:47:56.119Z,1.90
2022-08-04T09:49:08.347Z,1.60
2022-08-04T09:50:16.717Z,1.90
2022-08-04T09:51:58.026Z,1.50
2022-08-04T09:53:01.373Z,1.75
2022-08-04T09:54:07.690Z,1.95
2022-08-04T09:55:20.345Z,1.63
2022-08-04T09:56:28.080Z,1.88
2022-08-04T09:57:40.740Z,1.80
2022-08-04T09:58:52.145Z,1.80
2022-08-04T10:00:02.328Z,2.10
2022-08-04T10:01:09.859Z,1.73
2022-08-04T10:02:15.152Z,1.98
2022-08-04T10:03:20.345Z,1.95
2022-08-04T10:04:32.352Z,2.25
2022-08-04T10:05:41.744Z,2.22
2022-08-04T10:06:49.614Z,1.77
2022-08-04T10:08:15.877Z,1.90
2022-08-04T10:09:30.739Z,2.10
2022-08-04T10:10:42.368Z,2.00
2022-08-04T10:11:55.984Z,1.70
2022-08-04T10:13:07.639Z,2.15
2022-08-04T10:14:23.218Z,1.95
2022-08-04T10:15:38.331Z,2.63
2022-08-04T10:16:47.401Z,2.15
2022-08-04T10:18:01.596Z,2.03
2022-08-04T10:19:10.589Z,2.75
2022-08-04T10:20:44.296Z,2.38
2022-08-04T10:21:59.413Z,1.67
2022-08-04T10:23:25.559Z,1.73
2022-08-04T10:24:37.294Z,2.08
2022-08-04T10:26:07.582Z,1.85
2022-08-04T10:27:14.432Z,2.10
2022-08-04T10:28:18.379Z,1.70
2022-08-04T10:29:26.401Z,1.98
2022-08-04T10:30:33.182Z,1.55
2022-08-04T10:31:50.358Z,1.95
2022-08-04T10:32:57.522Z,2.47
2022-08-04T10:34:02.720Z,2.17
2022-08-04T10:35:10.189Z,2.30
2022-08-04T10:36:13.819Z,1.83
2022-08-04T10:37:53.200Z,2.28
2022-08-04T10:38:59.213Z,2.03
2022-08-04T10:40:23.380Z,2.13
2022-08-04T10:41:29.478Z,2.72
2022-08-04T10:42:39.431Z,2.25
2022-08-04T10:43:45.097Z,1.83
2022-08-04T10:44:57.477Z,1.75
2022-08-04T10:46:03.999Z,1.80
2022-08-04T10:47:09.411Z,1.90
2022-08-04T10:48:34.809Z,1.90
2022-08-04T10:49:39.766Z,2.17
2022-08-04T10:50:45.873Z,2.40
2022-08-04T10:51:57.505Z,2.15
2022-08-04T10:53:09.510Z,1.90
2022-08-04T10:54:24.897Z,1.80
2022-08-04T10:56:05.453Z,2.08
2022-08-04T10:56:58.326Z,1.90
2022-08-04T10:58:02.487Z,1.58
2022-08-04T10:59:08.772Z,1.98
2022-08-04T11:00:19.853Z,1.90
2022-08-04T11:02:00.715Z,2.38
2022-08-04T11:02:53.094Z,2.25
2022-08-04T11:03:57.792Z,3.13
2022-08-04T11:05:04.841Z,2.30
2022-08-04T11:06:16.380Z,2.20
2022-08-04T11:07:20.358Z,2.15
2022-08-04T11:08:28.232Z,2.15
2022-08-04T11:09:32.647Z,2.25
2022-08-04T11:10:39.134Z,2.20
2022-08-04T11:12:00.394Z,2.13
2022-08-04T11:13:07.741Z,1.70
2022-08-04T11:14:48.369Z,2.20
2022-08-04T11:15:55.430Z,1.90
2022-08-04T11:17:08.398Z,2.15
2022-08-04T11:18:16.779Z,1.90
2022-08-04T11:19:43.089Z,1.80
2022-08-04T11:20:55.089Z,2.10
2022-08-04T11:22:08.389Z,2.25
2022-08-04T11:23:18.393Z,1.90
2022-08-04T11:24:27.230Z,1.77
2022-08-04T11:25:31.420Z,2.00
2022-08-04T11:26:41.110Z,2.10
2022-08-04T11:28:08.411Z,1.60
2022-08-04T11:29:18.349Z,2.30
2022-08-04T11:30:21.298Z,1.98
2022-08-04T11:31:27.298Z,1.70
2022-08-04T11:32:36.612Z,2.05
2022-08-04T11:33:51.608Z,1.80
2022-08-04T11:34:59.281Z,2.10
2022-08-04T11:36:04.179Z,1.80
2022-08-04T11:37:14.435Z,2.30
2022-08-04T11:38:32.195Z,2.13
2022-08-04T11:39:39.982Z,2.15
2022-08-04T11:40:55.934Z,2.28
2022-08-04T11:42:08.870Z,2.08
2022-08-04T11:43:56.507Z,2.00
2022-08-04T11:44:51.191Z,1.67
2022-08-04T11:45:55.536Z,2.05
2022-08-04T11:47:01.329Z,2.45
2022-08-04T11:48:06.769Z,2.35
2022-08-04T11:49:20.465Z,2.60
2022-08-04T11:50:26.464Z,1.63
2022-08-04T11:51:29.334Z,2.40
2022-08-04T11:52:34.108Z,1.60
2022-08-04T11:53:40.052Z,1.80
2022-08-04T11:54:54.668Z,1.80
2022-08-04T11:56:09.256Z,2.10
2022-08-04T11:57:13.551Z,1.63
2022-08-04T11:58:17.252Z,1.77
2022-08-04T11:59:21.418Z,2.10
2022-08-04T12:00:33.419Z,2.40
2022-08-04T12:01:39.439Z,2.55
2022-08-04T12:02:58.870Z,2.05
2022-08-04T12:04:05.677Z,2.22
2022-08-04T12:05:23.210Z,2.10
2022-08-04T12:06:56.805Z,2.13
2022-08-04T12:08:10.138Z,2.08
2022-08-04T12:09:20.120Z,1.77
2022-08-04T12:10:42.105Z,2.20
2022-08-04T12:11:54.179Z,2.00
2022-08-04T12:13:14.469Z,2.17
2022-08-04T12:14:36.599Z,1.85
2022-08-04T12:15:49.795Z,2.05
2022-08-04T12:16:56.369Z,2.22
2022-08-04T12:18:07.640Z,1.85
2022-08-04T12:19:21.563Z,2.15
2022-08-04T12:20:32.216Z,1.98
2022-08-04T12:21:50.360Z,1.50
2022-08-04T12:22:57.258Z,1.80
2022-08-04T12:24:03.027Z,1.90
2022-08-04T12:25:15.462Z,2.13
2022-08-04T12:26:25.187Z,2.22
2022-08-04T12:27:37.435Z,1.90
2022-08-04T12:29:08.461Z,1.90
2022-08-04T12:30:57.556Z,1.83
2022-08-04T12:31:32.305Z,2.10
2022-08-04T12:32:48.075Z,1.92
2022-08-04T12:34:04.670Z,2.20
2022-08-04T12:35:14.995Z,2.40
2022-08-04T12:36:21.945Z,2.20
2022-08-04T12:37:37.427Z,2.10
2022-08-04T12:38:42.838Z,2.20
2022-08-04T12:40:27.514Z,2.15
2022-08-04T12:41:11.912Z,2.05
2022-08-04T12:42:26.488Z,2.08
2022-08-04T12:43:31.988Z,2.40
2022-08-04T12:44:38.875Z,1.75
2022-08-04T12:45:48.580Z,2.33
2022-08-04T12:46:52.853Z,2.10
2022-08-04T12:48:05.459Z,2.00
2022-08-04T12:49:09.259Z,1.65
2022-08-04T12:50:15.920Z,2.28
2022-08-04T12:51:31.083Z,2.10
2022-08-04T12:53:03.542Z,1.92
2022-08-04T12:54:14.449Z,2.10
2022-08-04T12:55:18.631Z,2.00
2022-08-04T12:56:27.153Z,2.30
2022-08-04T12:57:34.272Z,2.15
2022-08-04T12:58:45.504Z,2.25
2022-08-04T12:59:57.135Z,2.35
2022-08-04T13:02:08.821Z,2.20
2022-08-04T13:02:28.953Z,1.83
2022-08-04T13:03:52.453Z,1.88
2022-08-04T13:04:56.402Z,2.33
2022-08-04T13:06:07.098Z,2.30
2022-08-04T13:07:12.727Z,2.55
2022-08-04T13:08:22.430Z,2.42
2022-08-04T13:09:28.465Z,2.13
2022-08-04T13:10:31.378Z,2.53
2022-08-04T13:11:36.860Z,2.33
2022-08-04T13:12:42.635Z,2.10
2022-08-04T13:14:10.740Z,2.00
2022-08-04T13:15:31.472Z,1.92
2022-08-04T13:16:35.739Z,2.20
2022-08-04T13:17:47.179Z,2.53
2022-08-04T13:18:59.480Z,2.10
2022-08-04T13:20:08.438Z,2.05
2022-08-04T13:21:22.839Z,2.25
2022-08-04T13:22:28.069Z,2.10
2022-08-04T13:24:09.481Z,1.90
2022-08-04T13:26:40.186Z,2.70
2022-08-04T13:26:42.685Z,2.17
2022-08-04T13:27:55.498Z,2.00
2022-08-04T13:29:01.694Z,2.47
2022-08-04T13:30:27.566Z,2.13
2022-08-04T13:31:35.658Z,2.45
2022-08-04T13:32:38.845Z,2.53
2022-08-04T13:33:44.748Z,2.58
2022-08-04T13:34:49.629Z,2.22
2022-08-04T13:36:05.689Z,2.50
2022-08-04T13:37:08.879Z,2.40
2022-08-04T13:38:13.499Z,2.58
2022-08-04T13:39:18.790Z,2.13
2022-08-04T13:40:23.035Z,2.20
2022-08-04T13:41:33.641Z,2.05
2022-08-04T13:42:44.648Z,2.45
2022-08-04T13:44:18.636Z,2.38
2022-08-04T13:45:14.105Z,2.28
2022-08-04T13:46:27.787Z,2.03
2022-08-04T13:47:33.993Z,2.10
2022-08-04T13:48:44.459Z,2.08
2022-08-04T13:50:10.751Z,2.40
2022-08-04T13:51:19.263Z,1.88
2022-08-04T13:52:25.905Z,2.08
2022-08-04T13:53:35.426Z,2.45
2022-08-04T13:54:42.617Z,2.28
2022-08-04T13:55:47.539Z,2.30
2022-08-04T13:56:52.120Z,2.38
2022-08-04T13:58:04.713Z,2.17
2022-08-04T13:59:12.419Z,2.45
2022-08-04T14:00:29.061Z,2.35
2022-08-04T14:01:35.880Z,2.63
2022-08-04T14:02:40.315Z,2.05
2022-08-04T14:03:54.906Z,2.65
2022-08-04T14:05:00.840Z,2.05
2022-08-04T14:06:08.132Z,2.30
2022-08-04T14:07:20.644Z,2.28
2022-08-04T14:08:26.686Z,2.17
2022-08-04T14:09:40.469Z,2.88
2022-08-04T14:11:04.089Z,2.30
2022-08-04T14:12:38.186Z,1.95
2022-08-04T14:13:41.172Z,2.50
2022-08-04T14:15:01.127Z,2.28
2022-08-04T14:16:21.618Z,2.38
2022-08-04T14:17:29.993Z,2.20
2022-08-04T14:18:34.401Z,2.20
2022-08-04T14:19:58.443Z,2.72
2022-08-04T14:21:02.639Z,1.83
2022-08-04T14:22:06.062Z,2.05
2022-08-04T14:23:08.555Z,2.03
2022-08-04T14:24:11.876Z,1.92
2022-08-04T14:25:22.455Z,2.60
2022-08-04T14:26:32.488Z,2.03
2022-08-04T14:27:43.181Z,3.20
2022-08-04T14:29:08.452Z,2.15
2022-08-04T14:30:28.499Z,2.42
2022-08-04T14:31:31.864Z,1.88
2022-08-04T14:32:34.333Z,2.40
2022-08-04T14:34:03.093Z,2.08
2022-08-04T14:35:12.204Z,1.92
2022-08-04T14:36:22.625Z,2.22
2022-08-04T14:37:30.413Z,2.53
2022-08-04T14:38:49.938Z,2.05
2022-08-04T14:40:07.934Z,2.08
2022-08-04T14:41:18.553Z,2.35
2022-08-04T14:42:23.664Z,2.10
2022-08-04T14:43:27.732Z,2.20
2022-08-04T14:44:30.273Z,2.05
2022-08-04T14:45:36.281Z,1.90
2022-08-04T14:46:58.509Z,1.98
2022-08-04T14:48:08.498Z,2.15
2022-08-04T14:49:12.820Z,2.10
2022-08-04T14:50:15.768Z,2.88
2022-08-04T14:51:26.172Z,2.17
2022-08-04T14:52:40.445Z,2.25
2022-08-04T14:53:55.542Z,2.20
2022-08-04T14:54:59.370Z,2.03
2022-08-04T14:56:06.179Z,2.28
2022-08-04T14:57:09.985Z,2.72
2022-08-04T14:58:34.498Z,2.75
2022-08-04T14:59:59.573Z,2.20
2022-08-04T15:01:10.113Z,2.28
2022-08-04T15:02:15.657Z,2.10
2022-08-04T15:03:26.567Z,2.08
2022-08-04T15:04:31.311Z,2.17
2022-08-04T15:05:55.548Z,2.15
2022-08-04T15:06:57.518Z,2.00
2022-08-04T15:08:00.155Z,2.10
2022-08-04T15:09:11.509Z,2.17
2022-08-04T15:10:20.513Z,1.85
2022-08-04T15:11:24.715Z,2.20
2022-08-04T15:12:27.619Z,1.98
2022-08-04T15:13:31.281Z,2.38
2022-08-04T15:14:42.503Z,3.00
2022-08-04T15:16:06.601Z,2.28
2022-08-04T15:17:30.235Z,2.40
2022-08-04T15:18:33.020Z,2.05
2022-08-04T15:19:55.472Z,2.08
2022-08-04T15:21:02.265Z,2.17
2022-08-04T15:22:06.529Z,2.28
2022-08-04T15:23:10.943Z,2.38
2022-08-04T15:24:22.548Z,2.20
2022-08-04T15:25:26.929Z,2.33
2022-08-04T15:26:33.400Z,2.45
2022-08-04T15:27:37.189Z,1.95
2022-08-04T15:28:41.886Z,2.30
2022-08-04T15:29:59.147Z,2.10
2022-08-04T15:31:05.134Z,2.47
2022-08-04T15:32:17.134Z,2.28
2022-08-04T15:33:23.997Z,2.40
2022-08-04T15:34:45.545Z,2.50
2022-08-04T15:35:55.550Z,2.25
2022-08-04T15:37:01.932Z,2.25
2022-08-04T15:38:06.875Z,2.38
2022-08-04T15:39:15.410Z,2.40
2022-08-04T15:40:26.962Z,2.20
2022-08-04T15:41:55.108Z,2.42
2022-08-04T15:43:08.728Z,2.17
2022-08-04T15:44:30.378Z,2.53
2022-08-04T15:46:02.127Z,2.53
2022-08-04T15:47:26.549Z,2.25
2022-08-04T15:48:30.919Z,2.13
2022-08-04T15:49:33.769Z,2.30
2022-08-04T15:50:38.078Z,2.15
2022-08-04T15:51:50.892Z,2.20
2022-08-04T15:53:12.491Z,2.50
2022-08-04T15:54:27.367Z,2.15
2022-08-04T15:55:34.953Z,2.45
2022-08-04T15:57:02.318Z,2.28
2022-08-04T15:58:14.570Z,2.20
2022-08-04T15:59:17.239Z,2.50
2022-08-04T16:00:28.262Z,2.28
2022-08-04T16:01:37.632Z,2.72
2022-08-04T16:02:45.802Z,2.33
2022-08-04T16:04:00.057Z,2.28